createdAt,value
2019-05-17T00:01:39.217Z,8.33
2019-05-17T00:04:09.606Z,10.20
2019-05-17T00:06:42.007Z,8.33
2019-05-17T00:09:12.722Z,7.10
2019-05-17T00:11:43.039Z,7.20
2019-05-17T00:14:13.378Z,17.57
2019-05-17T00:16:43.734Z,10.47
2019-05-17T00:19:14.078Z,8.10
2019-05-17T00:21:44.434Z,12.53
2019-05-17T00:24:14.769Z,7.17
2019-05-17T00:26:46.762Z,7.43
2019-05-17T00:29:17.404Z,9.07
2019-05-17T00:31:47.745Z,6.53
2019-05-17T00:34:18.103Z,9.43
2019-05-17T00:36:48.761Z,9.83
2019-05-17T00:39:19.061Z,8.83
2019-05-17T00:41:49.417Z,11.17
2019-05-17T00:44:19.711Z,7.47
2019-05-17T00:46:50.139Z,7.67
2019-05-17T00:49:20.422Z,7.57
2019-05-17T00:51:50.777Z,10.13
2019-05-17T00:54:21.055Z,8.30
2019-05-17T00:56:51.879Z,9.87
2019-05-17T00:59:22.229Z,8.57
2019-05-17T01:01:53.615Z,7.53
2019-05-17T01:04:23.996Z,8.03
2019-05-17T01:06:56.225Z,6.93
2019-05-17T01:09:27.329Z,8.63
2019-05-17T01:11:57.878Z,10.23
2019-05-17T01:14:28.186Z,15.07
2019-05-17T01:16:58.569Z,8.97
2019-05-17T01:19:28.954Z,7.03
2019-05-17T01:21:59.372Z,8.80
2019-05-17T01:24:29.716Z,8.60
2019-05-17T01:27:01.343Z,8.23
2019-05-17T01:29:31.677Z,10.27
2019-05-17T01:32:01.992Z,8.57
2019-05-17T01:34:32.336Z,7.13
2019-05-17T01:37:02.674Z,7.97
2019-05-17T01:39:33.604Z,9.83
2019-05-17T01:42:04.033Z,9.00
2019-05-17T01:44:36.591Z,10.00
2019-05-17T01:47:07.342Z,8.27
2019-05-17T01:49:37.979Z,8.73
2019-05-17T01:52:08.286Z,9.17
2019-05-17T01:54:38.633Z,8.67
2019-05-17T01:57:10.049Z,7.50
2019-05-17T01:59:40.373Z,6.90
2019-05-17T02:02:16.297Z,9.13
2019-05-17T02:04:46.764Z,8.80
2019-05-17T02:07:17.329Z,7.93
2019-05-17T02:09:48.882Z,11.00
2019-05-17T02:12:19.222Z,7.93
2019-05-17T02:14:49.588Z,9.70
2019-05-17T02:17:19.875Z,8.33
2019-05-17T02:19:50.243Z,9.67
2019-05-17T02:22:20.527Z,8.50
2019-05-17T02:24:50.904Z,9.90
2019-05-17T02:27:25.175Z,7.27
2019-05-17T02:29:55.426Z,11.20
2019-05-17T02:32:26.226Z,8.83
2019-05-17T02:34:56.571Z,13.10
2019-05-17T02:37:26.873Z,8.50
2019-05-17T02:40:02.797Z,11.20
2019-05-17T02:42:29.162Z,10.00
2019-05-17T02:45:03.161Z,7.60
2019-05-17T02:47:33.733Z,12.67
2019-05-17T02:50:05.623Z,9.97
2019-05-17T02:52:36.279Z,13.13
2019-05-17T02:55:06.846Z,9.47
2019-05-17T02:57:37.443Z,11.07
2019-05-17T03:00:08.629Z,8.90
2019-05-17T03:02:39.027Z,10.50
2019-05-17T03:05:12.800Z,14.20
2019-05-17T03:07:44.062Z,14.03
2019-05-17T03:10:24.048Z,10.30
2019-05-17T03:12:47.892Z,9.83
2019-05-17T03:15:18.255Z,7.23
2019-05-17T03:17:48.551Z,9.20
2019-05-17T03:20:19.013Z,11.50
2019-05-17T03:22:52.321Z,10.43
2019-05-17T03:25:23.850Z,8.70
2019-05-17T03:27:53.890Z,10.63
2019-05-17T03:30:26.175Z,24.47
2019-05-17T03:32:57.269Z,6.63
2019-05-17T03:35:27.616Z,9.13
2019-05-17T03:37:58.306Z,8.37
2019-05-17T03:40:58.460Z,6.60
2019-05-17T03:43:02.840Z,10.30
2019-05-17T03:45:33.968Z,7.57
2019-05-17T03:48:05.329Z,6.67
2019-05-17T03:50:36.826Z,8.97
2019-05-17T03:53:07.231Z,17.00
2019-05-17T03:55:37.642Z,7.70
2019-05-17T03:58:09.147Z,11.23
2019-05-17T04:00:42.580Z,6.93
2019-05-17T04:03:13.557Z,11.13
2019-05-17T04:05:43.465Z,9.17
2019-05-17T04:08:14.162Z,10.97
2019-05-17T04:10:44.549Z,7.07
2019-05-17T04:13:14.912Z,7.87
2019-05-17T04:15:45.316Z,16.13
2019-05-17T04:18:15.735Z,9.93
2019-05-17T04:20:46.241Z,10.70
2019-05-17T04:23:16.617Z,9.07
2019-05-17T04:25:46.953Z,6.07
2019-05-17T04:28:17.423Z,9.50
2019-05-17T04:30:47.763Z,9.13
2019-05-17T04:33:18.116Z,11.70
2019-05-17T04:35:48.467Z,11.70
2019-05-17T04:38:18.778Z,10.57
2019-05-17T04:40:49.132Z,11.40
2019-05-17T04:43:22.889Z,9.63
2019-05-17T04:45:53.529Z,8.73
2019-05-17T04:48:24.719Z,9.90
2019-05-17T04:50:55.070Z,8.13
2019-05-17T04:53:27.723Z,12.33
2019-05-17T04:55:58.050Z,18.80
2019-05-17T04:58:29.455Z,8.03
2019-05-17T05:00:59.911Z,11.40
2019-05-17T05:03:32.618Z,11.90
2019-05-17T05:06:03.309Z,10.17
2019-05-17T05:08:33.893Z,10.37
2019-05-17T05:11:04.446Z,8.00
2019-05-17T05:13:34.925Z,10.00
2019-05-17T05:16:06.478Z,10.23
2019-05-17T05:18:36.830Z,7.60
2019-05-17T05:21:07.216Z,7.77
2019-05-17T05:23:37.575Z,9.87
2019-05-17T05:26:08.030Z,9.27
2019-05-17T05:28:41.792Z,7.73
2019-05-17T05:31:13.337Z,7.73
2019-05-17T05:33:43.564Z,9.63
2019-05-17T05:36:13.898Z,9.03
2019-05-17T05:38:44.179Z,9.53
2019-05-17T05:41:14.627Z,13.67
2019-05-17T05:43:44.931Z,13.17
2019-05-17T05:46:15.312Z,10.80
2019-05-17T05:48:45.651Z,13.90
2019-05-17T05:51:15.953Z,8.63
2019-05-17T05:53:46.295Z,12.10
2019-05-17T05:56:16.645Z,10.53
2019-05-17T05:58:48.292Z,11.20
2019-05-17T06:01:18.597Z,7.67
2019-05-17T06:03:49.333Z,11.67
2019-05-17T06:06:21.540Z,10.20
2019-05-17T06:08:53.114Z,10.80
2019-05-17T06:11:23.458Z,9.30
2019-05-17T06:13:53.948Z,11.83
2019-05-17T06:16:24.330Z,12.10
2019-05-17T06:18:54.749Z,11.57
2019-05-17T06:21:25.069Z,21.13
2019-05-17T06:23:55.409Z,15.23
2019-05-17T06:26:25.729Z,13.07
2019-05-17T06:28:56.378Z,15.03
2019-05-17T06:31:27.678Z,13.47
2019-05-17T06:33:58.454Z,15.53
2019-05-17T06:36:28.833Z,14.57
2019-05-17T06:38:59.153Z,15.87
2019-05-17T06:41:29.533Z,14.87
2019-05-17T06:44:02.726Z,19.63
2019-05-17T06:46:32.577Z,19.77
2019-05-17T06:49:03.202Z,24.20
2019-05-17T06:51:33.537Z,18.93
2019-05-17T06:54:03.899Z,18.40
2019-05-17T06:56:34.319Z,21.70
2019-05-17T06:59:04.704Z,15.83
2019-05-17T07:01:34.992Z,16.67
2019-05-17T07:04:05.373Z,18.27
2019-05-17T07:06:36.094Z,13.73
2019-05-17T07:09:09.884Z,15.80
2019-05-17T07:11:39.998Z,24.13
2019-05-17T07:14:10.409Z,13.87
2019-05-17T07:16:40.715Z,18.77
2019-05-17T07:19:11.113Z,14.20
2019-05-17T07:21:41.440Z,13.73
2019-05-17T07:24:11.817Z,14.50
2019-05-17T07:26:42.224Z,12.13
2019-05-17T07:29:12.532Z,16.83
2019-05-17T07:31:42.890Z,14.50
2019-05-17T07:34:13.259Z,18.07
2019-05-17T07:36:43.595Z,21.13
2019-05-17T07:39:13.974Z,18.03
2019-05-17T07:41:44.291Z,16.60
2019-05-17T07:44:14.661Z,19.40
2019-05-17T07:46:45.069Z,18.57
2019-05-17T07:49:15.375Z,16.30
2019-05-17T07:51:45.715Z,14.67
2019-05-17T07:54:16.086Z,17.80
2019-05-17T07:56:46.444Z,14.70
2019-05-17T07:59:19.974Z,19.17
2019-05-17T08:01:50.524Z,19.60
2019-05-17T08:04:21.961Z,10.20
2019-05-17T08:06:52.395Z,13.17
2019-05-17T08:09:23.809Z,10.30
2019-05-17T08:11:54.206Z,13.13
2019-05-17T08:14:29.996Z,9.70
2019-05-17T08:16:56.746Z,12.23
2019-05-17T08:19:29.765Z,16.07
2019-05-17T08:21:59.738Z,12.43
2019-05-17T08:24:30.373Z,8.20
2019-05-17T08:27:00.890Z,14.33
2019-05-17T08:29:31.441Z,8.27
2019-05-17T08:32:13.772Z,9.53
2019-05-17T08:34:44.125Z,8.70
2019-05-17T08:37:14.433Z,8.50
2019-05-17T08:39:44.806Z,8.97
2019-05-17T08:42:15.171Z,12.33
2019-05-17T08:44:45.489Z,7.60
2019-05-17T08:47:15.816Z,9.60
2019-05-17T08:49:46.295Z,7.83
2019-05-17T08:52:16.644Z,10.13
2019-05-17T08:54:49.447Z,7.60
2019-05-17T08:57:20.464Z,6.83
2019-05-17T08:59:51.189Z,7.33
2019-05-17T09:02:21.544Z,12.50
2019-05-17T09:04:51.862Z,10.67
2019-05-17T09:07:22.212Z,11.67
2019-05-17T09:09:52.591Z,9.13
2019-05-17T09:12:22.943Z,9.47
2019-05-17T09:14:53.290Z,10.03
2019-05-17T09:17:23.665Z,11.53
2019-05-17T09:19:54.491Z,10.87
2019-05-17T09:22:24.971Z,10.53
2019-05-17T09:24:55.316Z,10.43
2019-05-17T09:27:25.659Z,14.60
2019-05-17T09:29:59.875Z,16.43
2019-05-17T09:32:29.671Z,13.20
2019-05-17T09:35:00.485Z,11.40
2019-05-17T09:37:31.946Z,10.47
2019-05-17T09:40:02.579Z,11.50
2019-05-17T09:42:32.939Z,10.43
2019-05-17T09:45:03.474Z,13.87
2019-05-17T09:47:34.025Z,14.30
2019-05-17T09:50:04.771Z,9.77
2019-05-17T09:52:35.100Z,13.53
2019-05-17T09:55:06.186Z,13.10
2019-05-17T09:57:36.507Z,12.93
2019-05-17T10:00:09.892Z,10.37
2019-05-17T10:02:40.636Z,14.67
2019-05-17T10:05:10.989Z,9.07
2019-05-17T10:07:41.332Z,11.40
2019-05-17T10:10:23.013Z,12.33
2019-05-17T10:12:53.387Z,10.80
2019-05-17T10:15:23.962Z,14.00
2019-05-17T10:17:54.351Z,13.93
2019-05-17T10:20:24.725Z,15.90
2019-05-17T10:22:55.098Z,12.50
2019-05-17T10:25:25.414Z,11.37
2019-05-17T10:28:10.096Z,10.03
2019-05-17T10:30:40.796Z,15.30
2019-05-17T10:33:12.445Z,15.43
2019-05-17T10:35:42.820Z,10.93
2019-05-17T10:38:13.167Z,15.70
2019-05-17T10:40:43.766Z,19.67
2019-05-17T10:43:14.597Z,16.47
2019-05-17T10:45:44.962Z,13.83
2019-05-17T10:48:15.334Z,10.93
2019-05-17T10:50:45.667Z,12.93
2019-05-17T10:53:16.052Z,12.03
2019-05-17T10:55:46.362Z,14.20
2019-05-17T10:58:16.720Z,12.43
2019-05-17T11:00:50.139Z,10.87
2019-05-17T11:03:41.326Z,13.17
2019-05-17T11:06:11.665Z,11.33
2019-05-17T11:08:41.986Z,11.73
2019-05-17T11:11:13.258Z,11.60
2019-05-17T11:13:43.495Z,12.30
2019-05-17T11:16:14.698Z,11.50
2019-05-17T11:18:45.068Z,13.90
2019-05-17T11:21:15.914Z,11.97
2019-05-17T11:23:46.230Z,15.13
2019-05-17T11:26:16.590Z,12.60
2019-05-17T11:28:47.338Z,11.47
2019-05-17T11:31:17.681Z,15.43
2019-05-17T11:33:48.407Z,13.07
2019-05-17T11:36:18.746Z,12.70
2019-05-17T11:38:49.108Z,12.53
2019-05-17T11:41:22.084Z,9.60
2019-05-17T11:43:53.475Z,11.33
2019-05-17T11:46:41.439Z,9.30
2019-05-17T11:49:12.233Z,8.53
2019-05-17T11:51:42.926Z,9.80
2019-05-17T11:54:13.221Z,9.50
2019-05-17T11:56:43.573Z,9.93
2019-05-17T11:59:13.879Z,10.10
2019-05-17T12:01:44.302Z,10.47
2019-05-17T12:04:15.182Z,10.20
2019-05-17T12:06:45.544Z,8.20
2019-05-17T12:09:15.893Z,8.63
2019-05-17T12:11:46.846Z,9.67
2019-05-17T12:14:34.825Z,9.80
2019-05-17T12:17:05.806Z,9.67
2019-05-17T12:19:37.232Z,9.50
2019-05-17T12:22:07.817Z,8.23
2019-05-17T12:24:38.167Z,9.10
2019-05-17T12:27:08.893Z,11.47
2019-05-17T12:29:39.269Z,9.10
2019-05-17T12:32:15.942Z,9.53
2019-05-17T12:34:42.390Z,11.53
2019-05-17T12:37:12.743Z,7.90
2019-05-17T12:39:43.041Z,8.07
2019-05-17T12:42:13.479Z,9.67
2019-05-17T12:44:44.157Z,9.27
2019-05-17T12:47:14.502Z,9.00
2019-05-17T12:49:44.831Z,8.00
2019-05-17T12:52:15.227Z,11.63
2019-05-17T12:54:45.538Z,9.73
2019-05-17T12:57:15.920Z,18.00
2019-05-17T12:59:46.272Z,11.30
2019-05-17T13:02:16.685Z,8.30
2019-05-17T13:04:47.847Z,11.40
2019-05-17T13:07:18.270Z,12.20
2019-05-17T13:09:48.616Z,8.47
2019-05-17T13:12:18.950Z,13.93
2019-05-17T13:14:50.039Z,9.57
2019-05-17T13:17:20.796Z,8.53
2019-05-17T13:19:51.152Z,15.87
2019-05-17T13:22:21.474Z,12.40
2019-05-17T13:24:51.860Z,11.87
2019-05-17T13:27:22.186Z,9.47
2019-05-17T13:29:52.544Z,11.33
2019-05-17T13:32:22.904Z,10.30
2019-05-17T13:34:53.475Z,10.10
2019-05-17T13:37:23.802Z,10.20
2019-05-17T13:39:54.171Z,10.30
2019-05-17T13:42:24.496Z,10.67
2019-05-17T13:44:56.101Z,11.07
2019-05-17T13:47:26.412Z,10.60
2019-05-17T13:49:56.788Z,10.63
2019-05-17T13:52:27.191Z,8.00
2019-05-17T13:54:58.532Z,11.90
2019-05-17T13:57:28.853Z,18.03
2019-05-17T13:59:59.178Z,8.70
2019-05-17T14:02:29.529Z,6.97
2019-05-17T14:04:59.927Z,7.07
2019-05-17T14:07:30.245Z,7.10
2019-05-17T14:10:00.676Z,7.47
2019-05-17T14:12:31.129Z,4.90
2019-05-17T14:15:02.006Z,5.03
2019-05-17T14:17:32.829Z,7.67
2019-05-17T14:20:04.631Z,8.80
2019-05-17T14:22:36.060Z,5.57
2019-05-17T14:25:07.394Z,7.13
2019-05-17T14:27:37.691Z,3.87
2019-05-17T14:30:11.076Z,6.40
2019-05-17T14:32:41.399Z,5.00
2019-05-17T14:35:12.765Z,4.53
2019-05-17T14:37:42.998Z,4.53
2019-05-17T14:40:13.872Z,5.50
2019-05-17T14:42:44.319Z,5.40
2019-05-17T14:45:14.656Z,6.87
2019-05-17T14:47:45.003Z,8.00
2019-05-17T14:50:15.557Z,4.97
2019-05-17T14:52:45.953Z,4.50
2019-05-17T14:55:16.542Z,4.80
2019-05-17T14:57:46.969Z,4.23
2019-05-17T15:00:18.187Z,4.87
2019-05-17T15:02:48.556Z,6.83
2019-05-17T15:05:18.951Z,4.90
2019-05-17T15:07:50.373Z,5.23
2019-05-17T15:10:20.768Z,4.50
2019-05-17T15:12:51.166Z,4.47
2019-05-17T15:15:28.669Z,3.40
2019-05-17T15:17:54.061Z,7.37
2019-05-17T15:20:24.456Z,5.90
2019-05-17T15:22:54.818Z,5.00
2019-05-17T15:25:25.209Z,3.90
2019-05-17T15:27:55.649Z,5.60
2019-05-17T15:30:26.017Z,6.03
2019-05-17T15:32:56.646Z,3.70
2019-05-17T15:35:28.312Z,7.93
2019-05-17T15:37:59.008Z,4.30
2019-05-17T15:40:29.398Z,5.37
2019-05-17T15:42:59.689Z,5.20
2019-05-17T15:45:30.147Z,4.73
2019-05-17T15:48:00.457Z,5.20
2019-05-17T15:50:30.851Z,7.47
2019-05-17T15:53:01.204Z,4.30
2019-05-17T15:55:31.976Z,4.97
2019-05-17T15:58:02.282Z,5.30
2019-05-17T16:00:32.655Z,3.60
2019-05-17T16:03:02.953Z,6.23
2019-05-17T16:05:34.546Z,5.13
2019-05-17T16:08:04.849Z,5.83
2019-05-17T16:10:35.271Z,5.10
2019-05-17T16:13:07.120Z,5.07
2019-05-17T16:15:37.484Z,5.03
2019-05-17T16:18:07.816Z,4.60
2019-05-17T16:20:38.132Z,5.13
2019-05-17T16:23:08.488Z,5.70
2019-05-17T16:25:39.006Z,4.10
2019-05-17T16:28:09.494Z,6.27
2019-05-17T16:30:39.791Z,4.13
2019-05-17T16:33:10.200Z,5.20
2019-05-17T16:35:42.036Z,4.83
2019-05-17T16:38:12.314Z,5.37
2019-05-17T16:40:42.742Z,4.83
2019-05-17T16:43:18.252Z,7.50
2019-05-17T16:45:47.296Z,6.37
2019-05-17T16:48:17.686Z,4.87
2019-05-17T16:50:47.992Z,6.60
2019-05-17T16:53:18.359Z,7.17
2019-05-17T16:55:48.679Z,3.97
2019-05-17T16:58:19.114Z,6.83
2019-05-17T17:00:50.351Z,5.37
2019-05-17T17:03:20.735Z,6.77
2019-05-17T17:05:51.143Z,6.00
2019-05-17T17:08:21.574Z,6.33
2019-05-17T17:10:51.996Z,5.13
2019-05-17T17:13:32.788Z,4.77
2019-05-17T17:15:56.520Z,10.50
2019-05-17T17:18:27.276Z,5.63
2019-05-17T17:20:57.642Z,7.17
2019-05-17T17:23:27.990Z,7.23
2019-05-17T17:25:58.729Z,6.10
2019-05-17T17:28:29.097Z,5.80
2019-05-17T17:30:59.784Z,8.83
2019-05-17T17:33:30.149Z,6.60
2019-05-17T17:36:02.068Z,9.00
2019-05-17T17:38:32.440Z,5.97
2019-05-17T17:41:02.828Z,7.80
2019-05-17T17:43:33.120Z,7.70
2019-05-17T17:46:03.627Z,5.90
2019-05-17T17:48:33.976Z,6.10
2019-05-17T17:51:04.342Z,6.93
2019-05-17T17:53:34.710Z,4.80
2019-05-17T17:56:05.099Z,10.23
2019-05-17T17:58:35.476Z,7.80
2019-05-17T18:01:06.929Z,5.97
2019-05-17T18:03:37.297Z,6.07
2019-05-17T18:06:08.812Z,9.67
2019-05-17T18:08:39.218Z,9.10
2019-05-17T18:11:09.685Z,6.87
2019-05-17T18:13:40.008Z,6.70
2019-05-17T18:16:10.406Z,7.43
2019-05-17T18:18:41.452Z,6.00
2019-05-17T18:21:11.782Z,7.07
2019-05-17T18:23:42.152Z,5.00
2019-05-17T18:26:24.063Z,7.03
2019-05-17T18:28:54.938Z,7.40
2019-05-17T18:31:26.696Z,6.00
2019-05-17T18:33:57.082Z,18.63
2019-05-17T18:36:28.401Z,8.90
2019-05-17T18:38:59.575Z,10.13
2019-05-17T18:41:29.920Z,6.80
2019-05-17T18:44:00.478Z,8.97
2019-05-17T18:46:31.196Z,10.83
2019-05-17T18:49:01.554Z,5.60
2019-05-17T18:51:31.916Z,7.27
2019-05-17T18:54:03.019Z,34.80
2019-05-17T18:56:34.780Z,11.83
2019-05-17T18:59:05.200Z,9.60
2019-05-17T19:01:35.564Z,8.47
2019-05-17T19:04:05.950Z,6.60
2019-05-17T19:06:37.144Z,6.77
2019-05-17T19:09:07.818Z,8.53
2019-05-17T19:11:38.305Z,5.27
2019-05-17T19:14:08.646Z,9.60
2019-05-17T19:16:38.981Z,15.63
2019-05-17T19:19:09.327Z,9.73
2019-05-17T19:21:39.806Z,8.37
2019-05-17T19:24:10.742Z,7.00
2019-05-17T19:26:41.555Z,8.80
2019-05-17T19:29:12.316Z,8.77
2019-05-17T19:31:42.711Z,10.77
2019-05-17T19:34:13.020Z,7.57
2019-05-17T19:36:43.960Z,8.17
2019-05-17T19:39:14.656Z,7.50
2019-05-17T19:41:44.993Z,11.40
2019-05-17T19:44:15.360Z,13.63
2019-05-17T19:46:45.688Z,8.83
2019-05-17T19:49:16.050Z,11.77
2019-05-17T19:51:46.499Z,10.97
2019-05-17T19:54:16.873Z,11.77
2019-05-17T19:56:47.496Z,10.00
2019-05-17T19:59:17.860Z,9.40
2019-05-17T20:01:49.109Z,8.53
2019-05-17T20:04:19.457Z,6.63
2019-05-17T20:06:50.572Z,7.77
2019-05-17T20:09:20.970Z,6.53
2019-05-17T20:11:51.382Z,8.37
2019-05-17T20:14:21.778Z,8.13
2019-05-17T20:16:52.106Z,7.37
2019-05-17T20:19:22.472Z,8.43
2019-05-17T20:21:52.792Z,7.77
2019-05-17T20:24:23.142Z,10.43
2019-05-17T20:26:53.540Z,9.40
2019-05-17T20:29:23.977Z,10.93
2019-05-17T20:31:54.302Z,8.00
2019-05-17T20:34:24.682Z,7.43
2019-05-17T20:36:57.600Z,11.13
2019-05-17T20:39:28.026Z,9.27
2019-05-17T20:41:58.733Z,13.70
2019-05-17T20:44:29.078Z,11.10
2019-05-17T20:46:59.466Z,12.67
2019-05-17T20:49:30.100Z,11.93
2019-05-17T20:52:00.448Z,9.40
2019-05-17T20:54:30.784Z,11.80
2019-05-17T20:57:01.153Z,11.10
2019-05-17T20:59:31.666Z,8.57
2019-05-17T21:02:02.054Z,12.03
2019-05-17T21:04:32.830Z,13.77
2019-05-17T21:07:04.044Z,14.50
2019-05-17T21:09:35.687Z,15.63
2019-05-17T21:12:06.086Z,11.70
2019-05-17T21:14:36.508Z,12.37
2019-05-17T21:17:06.808Z,11.00
2019-05-17T21:19:37.461Z,15.43
2019-05-17T21:22:07.818Z,21.13
2019-05-17T21:24:38.160Z,9.70
2019-05-17T21:27:08.566Z,11.17
2019-05-17T21:29:39.978Z,15.50
2019-05-17T21:32:10.746Z,12.40
2019-05-17T21:34:41.560Z,13.33
2019-05-17T21:37:11.852Z,15.40
2019-05-17T21:39:42.215Z,16.83
2019-05-17T21:42:13.246Z,12.53
2019-05-17T21:44:43.598Z,11.53
2019-05-17T21:47:13.935Z,11.43
2019-05-17T21:49:44.686Z,13.73
2019-05-17T21:52:15.055Z,13.90
2019-05-17T21:54:45.391Z,11.70
2019-05-17T21:57:16.643Z,11.20
2019-05-17T21:59:47.396Z,12.80
2019-05-17T22:02:18.099Z,16.20
2019-05-17T22:04:48.434Z,30.50
2019-05-17T22:07:18.835Z,21.07
2019-05-17T22:09:49.648Z,16.27
2019-05-17T22:12:20.034Z,15.00
2019-05-17T22:14:50.398Z,21.10
2019-05-17T22:17:20.767Z,12.67
2019-05-17T22:19:51.096Z,18.77
2019-05-17T22:22:21.474Z,18.73
2019-05-17T22:24:51.832Z,16.20
2019-05-17T22:27:22.286Z,18.77
2019-05-17T22:29:52.596Z,15.77
2019-05-17T22:32:22.956Z,26.07
2019-05-17T22:34:53.324Z,18.87
2019-05-17T22:37:23.678Z,19.93
2019-05-17T22:39:54.021Z,17.23
2019-05-17T22:42:24.372Z,20.17
2019-05-17T22:44:55.614Z,17.20
2019-05-17T22:47:25.925Z,16.60
2019-05-17T22:49:56.289Z,20.30
2019-05-17T22:52:26.622Z,18.60
2019-05-17T22:54:56.977Z,16.10
2019-05-17T22:57:27.290Z,24.03
2019-05-17T22:59:57.670Z,17.80
2019-05-17T23:02:28.113Z,20.20
2019-05-17T23:04:58.526Z,18.33
2019-05-17T23:07:28.834Z,27.00
2019-05-17T23:09:59.260Z,24.30
2019-05-17T23:12:29.599Z,19.90
2019-05-17T23:15:00.006Z,19.43
2019-05-17T23:17:30.314Z,15.57
2019-05-17T23:20:01.787Z,19.63
2019-05-17T23:22:32.179Z,28.57
2019-05-17T23:25:02.639Z,17.03
2019-05-17T23:27:32.968Z,23.67
2019-05-17T23:30:03.289Z,17.77
2019-05-17T23:32:33.673Z,26.40
2019-05-17T23:35:04.410Z,18.77
2019-05-17T23:37:36.342Z,14.90
2019-05-17T23:40:07.612Z,16.67
2019-05-17T23:42:39.535Z,21.20
2019-05-17T23:45:10.241Z,25.53
2019-05-17T23:47:40.543Z,16.23
2019-05-17T23:50:11.321Z,21.10
2019-05-17T23:52:41.987Z,16.60
2019-05-17T23:55:14.182Z,17.27
2019-05-17T23:57:44.517Z,19.53
